createdAt,value
2023-04-13T00:00:27.308Z,100.00
2023-04-13T00:01:31.594Z,100.00
2023-04-13T00:02:35.889Z,100.00
2023-04-13T00:03:40.450Z,100.00
2023-04-13T00:04:44.420Z,100.00
2023-04-13T00:05:49.044Z,100.00
2023-04-13T00:06:52.948Z,100.00
2023-04-13T00:07:57.302Z,100.00
2023-04-13T00:09:01.642Z,100.00
2023-04-13T00:10:08.865Z,100.00
2023-04-13T00:11:12.270Z,100.00
2023-04-13T00:12:16.520Z,100.00
2023-04-13T00:13:20.813Z,100.00
2023-04-13T00:14:25.044Z,100.00
2023-04-13T00:15:29.354Z,100.00
2023-04-13T00:16:33.667Z,100.00
2023-04-13T00:17:37.885Z,100.00
2023-04-13T00:18:42.174Z,100.00
2023-04-13T00:19:46.373Z,100.00
2023-04-13T00:20:50.718Z,100.00
2023-04-13T00:21:55.039Z,100.00
2023-04-13T00:22:59.327Z,100.00
2023-04-13T00:24:03.561Z,100.00
2023-04-13T00:25:07.985Z,100.00
2023-04-13T00:26:12.173Z,100.00
2023-04-13T00:27:16.456Z,100.00
2023-04-13T00:28:20.690Z,100.00
2023-04-13T00:29:30.987Z,100.00
2023-04-13T00:30:34.098Z,100.00
2023-04-13T00:31:38.201Z,100.00
2023-04-13T00:32:42.564Z,100.00
2023-04-13T00:33:46.899Z,100.00
2023-04-13T00:34:51.182Z,100.00
2023-04-13T00:35:55.489Z,100.00
2023-04-13T00:37:02.782Z,100.00
2023-04-13T00:38:06.137Z,100.00
2023-04-13T00:39:10.434Z,100.00
2023-04-13T00:40:14.704Z,100.00
2023-04-13T00:41:18.999Z,100.00
2023-04-13T00:42:23.277Z,100.00
2023-04-13T00:43:27.473Z,100.00
2023-04-13T00:44:31.821Z,100.00
2023-04-13T00:45:36.109Z,100.00
2023-04-13T00:46:40.501Z,100.00
2023-04-13T00:47:44.709Z,100.00
2023-04-13T00:48:48.927Z,100.00
2023-04-13T00:49:53.189Z,100.00
2023-04-13T00:50:57.441Z,100.00
2023-04-13T00:52:01.746Z,100.00
2023-04-13T00:53:08.163Z,100.00
2023-04-13T00:54:10.177Z,100.00
2023-04-13T00:55:14.495Z,100.00
2023-04-13T00:56:18.736Z,100.00
2023-04-13T00:57:23.054Z,100.00
2023-04-13T00:58:27.255Z,100.00
2023-04-13T00:59:31.569Z,100.00
2023-04-13T01:00:35.934Z,100.00
2023-04-13T01:01:40.207Z,100.00
2023-04-13T01:02:44.736Z,100.00
2023-04-13T01:03:48.666Z,100.00
2023-04-13T01:04:53.079Z,100.00
2023-04-13T01:05:57.205Z,100.00
2023-04-13T01:07:01.524Z,100.00
2023-04-13T01:08:05.784Z,100.00
2023-04-13T01:09:10.106Z,100.00
2023-04-13T01:10:14.434Z,100.00
2023-04-13T01:11:18.662Z,100.00
2023-04-13T01:12:22.899Z,100.00
2023-04-13T01:13:27.236Z,100.00
2023-04-13T01:14:31.572Z,100.00
2023-04-13T01:15:35.927Z,100.00
2023-04-13T01:16:40.106Z,100.00
2023-04-13T01:17:50.430Z,100.00
2023-04-13T01:18:53.342Z,100.00
2023-04-13T01:19:57.622Z,100.00
2023-04-13T01:21:01.793Z,100.00
2023-04-13T01:22:06.136Z,100.00
2023-04-13T01:23:10.399Z,100.00
2023-04-13T01:24:14.599Z,100.00
2023-04-13T01:25:18.869Z,100.00
2023-04-13T01:26:23.136Z,100.00
2023-04-13T01:27:27.420Z,100.00
2023-04-13T01:28:31.579Z,100.00
2023-04-13T01:29:35.913Z,100.00
2023-04-13T01:30:40.164Z,100.00
2023-04-13T01:31:44.552Z,100.00
2023-04-13T01:32:48.709Z,100.00
2023-04-13T01:33:53.039Z,100.00
2023-04-13T01:34:57.326Z,100.00
2023-04-13T01:36:01.586Z,100.00
2023-04-13T01:37:05.874Z,100.00
2023-04-13T01:38:13.140Z,100.00
2023-04-13T01:39:16.408Z,100.00
2023-04-13T01:40:20.710Z,100.00
2023-04-13T01:41:24.910Z,100.00
2023-04-13T01:42:29.144Z,100.00
2023-04-13T01:43:33.519Z,100.00
2023-04-13T01:44:37.693Z,100.00
2023-04-13T01:45:41.963Z,100.00
2023-04-13T01:46:46.554Z,100.00
2023-04-13T01:47:51.569Z,100.00
2023-04-13T01:48:58.484Z,100.00
2023-04-13T01:50:01.750Z,100.00
2023-04-13T01:51:06.043Z,100.00
2023-04-13T01:52:10.258Z,100.00
2023-04-13T01:53:14.545Z,100.00
2023-04-13T01:54:18.794Z,100.00
2023-04-13T01:55:23.183Z,100.00
2023-04-13T01:56:27.329Z,100.00
2023-04-13T01:57:31.635Z,100.00
2023-04-13T01:58:35.843Z,100.00
2023-04-13T01:59:40.136Z,100.00
2023-04-13T02:00:44.486Z,100.00
2023-04-13T02:01:48.721Z,100.00
2023-04-13T02:02:53.194Z,100.00
2023-04-13T02:03:57.958Z,100.00
2023-04-13T02:05:01.579Z,100.00
2023-04-13T02:06:05.788Z,100.00
2023-04-13T02:07:10.043Z,100.00
2023-04-13T02:08:14.453Z,100.00
2023-04-13T02:09:18.727Z,100.00
2023-04-13T02:10:23.051Z,100.00
2023-04-13T02:11:27.255Z,100.00
2023-04-13T02:12:31.470Z,100.00
2023-04-13T02:13:35.718Z,100.00
2023-04-13T02:14:40.128Z,100.00
2023-04-13T02:15:47.345Z,100.00
2023-04-13T02:16:50.829Z,100.00
2023-04-13T02:17:54.968Z,100.00
2023-04-13T02:18:59.218Z,100.00
2023-04-13T02:20:03.441Z,100.00
2023-04-13T02:21:07.753Z,100.00
2023-04-13T02:22:11.962Z,100.00
2023-04-13T02:23:16.248Z,100.00
2023-04-13T02:24:20.471Z,100.00
2023-04-13T02:25:24.827Z,100.00
2023-04-13T02:26:29.025Z,100.00
2023-04-13T02:27:33.330Z,100.00
2023-04-13T02:28:37.419Z,100.00
2023-04-13T02:29:41.716Z,100.00
2023-04-13T02:30:45.979Z,100.00
2023-04-13T02:31:50.295Z,100.00
2023-04-13T02:32:54.528Z,100.00
2023-04-13T02:33:59.132Z,100.00
2023-04-13T02:35:03.037Z,100.00
2023-04-13T02:36:07.317Z,100.00
2023-04-13T02:37:11.631Z,100.00
2023-04-13T02:38:15.832Z,100.00
2023-04-13T02:39:20.141Z,100.00
2023-04-13T02:40:24.345Z,100.00
2023-04-13T02:41:28.606Z,100.00
2023-04-13T02:42:32.884Z,100.00
2023-04-13T02:43:37.139Z,100.00
2023-04-13T02:44:41.469Z,100.00
2023-04-13T02:45:45.740Z,100.00
2023-04-13T02:46:49.963Z,100.00
2023-04-13T02:47:54.254Z,100.00
2023-04-13T02:48:58.419Z,100.00
2023-04-13T02:50:02.694Z,100.00
2023-04-13T02:51:07.018Z,100.00
2023-04-13T02:52:11.257Z,100.00
2023-04-13T02:53:15.519Z,100.00
2023-04-13T02:54:19.706Z,100.00
2023-04-13T02:55:24.035Z,100.00
2023-04-13T02:56:28.432Z,100.00
2023-04-13T02:57:32.485Z,100.00
2023-04-13T02:58:36.821Z,100.00
2023-04-13T02:59:41.044Z,100.00
2023-04-13T03:00:45.322Z,100.00
2023-04-13T03:01:49.796Z,100.00
2023-04-13T03:02:53.811Z,100.00
2023-04-13T03:03:58.350Z,100.00
2023-04-13T03:05:08.376Z,100.00
2023-04-13T03:06:11.254Z,100.00
2023-04-13T03:07:15.490Z,100.00
2023-04-13T03:08:19.743Z,100.00
2023-04-13T03:09:26.975Z,100.00
2023-04-13T03:10:30.290Z,100.00
2023-04-13T03:11:34.578Z,100.00
2023-04-13T03:12:38.856Z,100.00
2023-04-13T03:13:43.048Z,100.00
2023-04-13T03:14:47.364Z,100.00
2023-04-13T03:15:51.525Z,100.00
2023-04-13T03:16:55.860Z,100.00
2023-04-13T03:18:00.217Z,100.00
2023-04-13T03:19:04.369Z,100.00
2023-04-13T03:20:08.635Z,100.00
2023-04-13T03:21:12.822Z,100.00
2023-04-13T03:22:17.149Z,100.00
2023-04-13T03:23:21.328Z,100.00
2023-04-13T03:24:25.700Z,100.00
2023-04-13T03:25:31.872Z,100.00
2023-04-13T03:26:34.174Z,100.00
2023-04-13T03:27:38.350Z,100.00
2023-04-13T03:28:42.626Z,100.00
2023-04-13T03:29:46.921Z,100.00
2023-04-13T03:30:51.175Z,100.00
2023-04-13T03:31:55.492Z,100.00
2023-04-13T03:32:59.717Z,100.00
2023-04-13T03:34:03.977Z,100.00
2023-04-13T03:35:08.160Z,100.00
2023-04-13T03:36:12.370Z,100.00
2023-04-13T03:37:16.712Z,100.00
2023-04-13T03:38:20.816Z,100.00
2023-04-13T03:39:25.187Z,100.00
2023-04-13T03:40:29.437Z,100.00
2023-04-13T03:41:33.715Z,100.00
2023-04-13T03:42:37.893Z,100.00
2023-04-13T03:43:42.169Z,100.00
2023-04-13T03:44:46.435Z,100.00
2023-04-13T03:45:50.767Z,100.00
2023-04-13T03:46:55.008Z,100.00
2023-04-13T03:47:59.341Z,100.00
2023-04-13T03:49:03.455Z,100.00
2023-04-13T03:50:07.690Z,100.00
2023-04-13T03:51:12.065Z,100.00
2023-04-13T03:52:16.343Z,100.00
2023-04-13T03:53:20.602Z,100.00
2023-04-13T03:54:24.806Z,100.00
2023-04-13T03:55:35.159Z,100.00
2023-04-13T03:56:37.974Z,100.00
2023-04-13T03:57:42.120Z,100.00
2023-04-13T03:58:46.375Z,100.00
2023-04-13T03:59:50.693Z,100.00
2023-04-13T04:00:54.909Z,100.00
2023-04-13T04:01:59.217Z,100.00
2023-04-13T04:03:03.450Z,100.00
2023-04-13T04:04:07.945Z,100.00
2023-04-13T04:05:11.975Z,100.00
2023-04-13T04:06:16.245Z,100.00
2023-04-13T04:07:20.426Z,100.00
2023-04-13T04:08:24.630Z,100.00
2023-04-13T04:09:28.877Z,100.00
2023-04-13T04:10:33.236Z,100.00
2023-04-13T04:11:37.475Z,100.00
2023-04-13T04:12:41.686Z,100.00
2023-04-13T04:13:45.904Z,100.00
2023-04-13T04:14:50.157Z,100.00
2023-04-13T04:15:54.475Z,100.00
2023-04-13T04:17:01.691Z,100.00
2023-04-13T04:18:05.204Z,100.00
2023-04-13T04:19:09.288Z,100.00
2023-04-13T04:20:13.575Z,100.00
2023-04-13T04:21:17.700Z,100.00
2023-04-13T04:22:21.945Z,100.00
2023-04-13T04:23:26.058Z,100.00
2023-04-13T04:24:30.359Z,100.00
2023-04-13T04:25:34.576Z,100.00
2023-04-13T04:26:38.882Z,100.00
2023-04-13T04:27:43.227Z,100.00
2023-04-13T04:28:47.431Z,100.00
2023-04-13T04:29:51.756Z,100.00
2023-04-13T04:30:55.994Z,100.00
2023-04-13T04:32:00.321Z,100.00
2023-04-13T04:33:04.444Z,100.00
2023-04-13T04:34:08.752Z,100.00
2023-04-13T04:35:12.979Z,100.00
2023-04-13T04:36:17.277Z,100.00
2023-04-13T04:37:21.547Z,100.00
2023-04-13T04:38:25.746Z,100.00
2023-04-13T04:39:30.053Z,100.00
2023-04-13T04:40:34.343Z,100.00
2023-04-13T04:41:38.578Z,100.00
2023-04-13T04:42:42.766Z,100.00
2023-04-13T04:43:47.123Z,100.00
2023-04-13T04:44:51.360Z,100.00
2023-04-13T04:45:55.622Z,100.00
2023-04-13T04:46:59.748Z,100.00
2023-04-13T04:48:04.160Z,100.00
2023-04-13T04:49:08.243Z,100.00
2023-04-13T04:50:12.527Z,100.00
2023-04-13T04:51:16.781Z,100.00
2023-04-13T04:52:21.674Z,100.00
2023-04-13T04:53:25.212Z,100.00
2023-04-13T04:54:29.408Z,100.00
2023-04-13T04:55:33.688Z,100.00
2023-04-13T04:56:37.892Z,100.00
2023-04-13T04:57:42.137Z,100.00
2023-04-13T04:58:46.346Z,100.00
2023-04-13T04:59:50.680Z,100.00
2023-04-13T05:00:54.955Z,100.00
2023-04-13T05:01:59.107Z,100.00
2023-04-13T05:03:03.405Z,100.00
2023-04-13T05:04:07.574Z,100.00
2023-04-13T05:05:11.965Z,100.00
2023-04-13T05:06:16.096Z,100.00
2023-04-13T05:07:20.240Z,100.00
2023-04-13T05:08:24.483Z,100.00
2023-04-13T05:09:42.814Z,100.00
2023-04-13T05:10:45.956Z,100.00
2023-04-13T05:11:50.107Z,100.00
2023-04-13T05:12:54.327Z,100.00
2023-04-13T05:13:58.596Z,100.00
2023-04-13T05:15:02.940Z,100.00
2023-04-13T05:16:07.195Z,100.00
2023-04-13T05:17:11.349Z,100.00
2023-04-13T05:18:15.680Z,100.00
2023-04-13T05:19:19.962Z,100.00
2023-04-13T05:20:24.138Z,100.00
2023-04-13T05:21:28.528Z,100.00
2023-04-13T05:22:32.657Z,100.00
2023-04-13T05:23:36.843Z,100.00
2023-04-13T05:24:41.189Z,100.00
2023-04-13T05:25:45.451Z,100.00
2023-04-13T05:26:49.775Z,100.00
2023-04-13T05:27:54.011Z,100.00
2023-04-13T05:28:58.413Z,100.00
2023-04-13T05:30:02.440Z,100.00
2023-04-13T05:31:06.680Z,100.00
2023-04-13T05:32:11.040Z,100.00
2023-04-13T05:33:15.220Z,100.00
2023-04-13T05:34:19.493Z,100.00
2023-04-13T05:35:23.744Z,100.00
2023-04-13T05:36:28.001Z,100.00
2023-04-13T05:37:32.108Z,100.00
2023-04-13T05:38:36.412Z,100.00
2023-04-13T05:39:40.781Z,100.00
2023-04-13T05:40:45.004Z,100.00
2023-04-13T05:41:49.368Z,100.00
2023-04-13T05:42:53.511Z,100.00
2023-04-13T05:43:58.676Z,100.00
2023-04-13T05:45:02.533Z,100.00
2023-04-13T05:46:06.776Z,100.00
2023-04-13T05:47:11.017Z,100.00
2023-04-13T05:48:15.376Z,100.00
2023-04-13T05:49:19.654Z,100.00
2023-04-13T05:50:23.811Z,100.00
2023-04-13T05:51:28.191Z,100.00
2023-04-13T05:52:32.380Z,100.00
2023-04-13T05:53:36.713Z,100.00
2023-04-13T05:54:40.996Z,100.00
2023-04-13T05:55:47.573Z,100.00
2023-04-13T05:56:49.430Z,100.00
2023-04-13T05:58:07.772Z,100.00
2023-04-13T05:59:10.879Z,100.00
2023-04-13T06:00:14.942Z,100.00
2023-04-13T06:01:19.214Z,100.00
2023-04-13T06:02:23.655Z,100.00
2023-04-13T06:03:27.942Z,100.00
2023-04-13T06:04:32.211Z,100.00
2023-04-13T06:05:36.169Z,100.00
2023-04-13T06:06:40.485Z,100.00
2023-04-13T06:07:44.785Z,100.00
2023-04-13T06:08:49.102Z,100.00
2023-04-13T06:09:53.395Z,100.00
2023-04-13T06:10:57.688Z,100.00
2023-04-13T06:12:01.893Z,100.00
2023-04-13T06:13:06.160Z,100.00
2023-04-13T06:14:10.444Z,100.00
2023-04-13T06:15:14.786Z,100.00
2023-04-13T06:16:19.108Z,100.00
2023-04-13T06:17:23.370Z,100.00
2023-04-13T06:18:27.669Z,100.00
2023-04-13T06:19:31.986Z,100.00
2023-04-13T06:20:36.287Z,100.00
2023-04-13T06:21:40.496Z,100.00
2023-04-13T06:22:44.798Z,100.00
2023-04-13T06:23:49.147Z,100.00
2023-04-13T06:24:53.406Z,100.00
2023-04-13T06:25:57.786Z,100.00
2023-04-13T06:27:01.990Z,100.00
2023-04-13T06:28:06.267Z,100.00
2023-04-13T06:29:10.688Z,100.00
2023-04-13T06:30:14.925Z,100.00
2023-04-13T06:31:19.270Z,100.00
2023-04-13T06:32:23.458Z,100.00
2023-04-13T06:33:27.806Z,99.96
2023-04-13T06:34:32.167Z,99.92
2023-04-13T06:35:42.497Z,99.92
2023-04-13T06:36:45.373Z,99.88
2023-04-13T06:37:49.519Z,99.87
2023-04-13T06:38:53.801Z,99.85
2023-04-13T06:39:58.085Z,99.72
2023-04-13T06:41:02.354Z,99.66
2023-04-13T06:42:06.604Z,99.58
2023-04-13T06:43:18.890Z,99.57
2023-04-13T06:44:15.201Z,99.54
2023-04-13T06:45:19.380Z,99.59
2023-04-13T06:46:23.801Z,99.61
2023-04-13T06:47:28.063Z,99.61
2023-04-13T06:48:32.278Z,99.49
2023-04-13T06:49:36.561Z,99.35
2023-04-13T06:50:40.760Z,99.08
2023-04-13T06:51:45.031Z,98.93
2023-04-13T06:52:49.310Z,98.69
2023-04-13T06:53:53.759Z,98.47
2023-04-13T06:55:00.930Z,98.39
2023-04-13T06:56:04.388Z,98.18
2023-04-13T06:57:08.664Z,98.03
2023-04-13T06:58:12.990Z,97.89
2023-04-13T06:59:17.240Z,97.91
2023-04-13T07:00:29.754Z,97.79
2023-04-13T07:01:26.636Z,97.58
2023-04-13T07:02:30.891Z,97.29
2023-04-13T07:03:35.171Z,97.07
2023-04-13T07:04:39.523Z,96.77
2023-04-13T07:05:43.535Z,96.58
2023-04-13T07:06:47.783Z,96.45
2023-04-13T07:07:52.116Z,96.36
2023-04-13T07:08:56.601Z,96.27
2023-04-13T07:10:00.844Z,96.15
2023-04-13T07:11:04.984Z,96.07
2023-04-13T07:12:09.236Z,96.04
2023-04-13T07:13:13.550Z,96.06
2023-04-13T07:14:17.763Z,96.09
2023-04-13T07:15:22.024Z,96.14
2023-04-13T07:16:26.494Z,96.06
2023-04-13T07:17:30.657Z,96.01
2023-04-13T07:18:34.839Z,96.03
2023-04-13T07:19:39.095Z,96.11
2023-04-13T07:20:43.470Z,96.16
2023-04-13T07:21:47.653Z,96.15
2023-04-13T07:22:51.910Z,96.25
2023-04-13T07:23:56.066Z,96.31
2023-04-13T07:25:00.386Z,96.38
2023-04-13T07:26:04.714Z,96.40
2023-04-13T07:27:08.948Z,96.41
2023-04-13T07:28:13.228Z,96.43
2023-04-13T07:29:17.496Z,96.48
2023-04-13T07:30:35.856Z,96.50
2023-04-13T07:31:38.917Z,96.45
2023-04-13T07:32:43.236Z,96.42
2023-04-13T07:33:53.528Z,96.46
2023-04-13T07:34:56.387Z,96.47
2023-04-13T07:36:00.788Z,96.48
2023-04-13T07:37:04.859Z,96.43
2023-04-13T07:38:09.097Z,96.39
2023-04-13T07:39:13.482Z,96.32
2023-04-13T07:40:20.721Z,96.28
2023-04-13T07:41:24.130Z,96.25
2023-04-13T07:42:28.384Z,96.22
2023-04-13T07:43:32.594Z,96.16
2023-04-13T07:44:36.741Z,96.00
2023-04-13T07:45:41.139Z,95.94
2023-04-13T07:46:45.398Z,95.90
2023-04-13T07:47:49.735Z,95.86
2023-04-13T07:48:54.012Z,95.84
2023-04-13T07:49:58.304Z,95.82
2023-04-13T07:51:02.653Z,95.79
2023-04-13T07:52:06.895Z,95.72
2023-04-13T07:53:11.224Z,95.69
2023-04-13T07:54:16.687Z,95.58
2023-04-13T07:55:19.724Z,95.35
2023-04-13T07:56:24.051Z,95.34
2023-04-13T07:57:28.309Z,95.38
2023-04-13T07:58:32.589Z,95.13
2023-04-13T07:59:36.865Z,94.97
2023-04-13T08:00:41.102Z,94.89
2023-04-13T08:01:45.421Z,94.88
2023-04-13T08:02:49.942Z,94.78
2023-04-13T08:03:54.173Z,94.66
2023-04-13T08:04:58.348Z,94.51
2023-04-13T08:06:02.548Z,94.44
2023-04-13T08:07:06.818Z,94.37
2023-04-13T08:08:11.252Z,94.31
2023-04-13T08:09:15.448Z,94.34
2023-04-13T08:10:19.715Z,94.34
2023-04-13T08:11:23.976Z,94.29
2023-04-13T08:12:28.239Z,94.16
2023-04-13T08:13:32.474Z,94.13
2023-04-13T08:14:36.802Z,93.96
2023-04-13T08:15:41.045Z,93.89
2023-04-13T08:16:45.401Z,93.74
2023-04-13T08:17:49.643Z,93.54
2023-04-13T08:18:53.990Z,93.48
2023-04-13T08:19:58.220Z,93.47
2023-04-13T08:21:02.456Z,93.36
2023-04-13T08:22:06.739Z,93.33
2023-04-13T08:23:12.475Z,93.32
2023-04-13T08:24:15.436Z,93.32
2023-04-13T08:25:19.623Z,93.21
2023-04-13T08:26:29.937Z,92.94
2023-04-13T08:27:32.820Z,92.57
2023-04-13T08:28:37.091Z,92.48
2023-04-13T08:29:41.484Z,92.48
2023-04-13T08:30:45.757Z,92.52
2023-04-13T08:31:50.150Z,92.48
2023-04-13T08:32:54.467Z,92.29
2023-04-13T08:33:58.671Z,92.22
2023-04-13T08:35:02.927Z,91.85
2023-04-13T08:36:07.171Z,91.62
2023-04-13T08:37:11.508Z,91.52
2023-04-13T08:38:15.835Z,91.50
2023-04-13T08:39:20.057Z,91.55
2023-04-13T08:40:24.275Z,91.52
2023-04-13T08:41:28.554Z,91.18
2023-04-13T08:42:32.826Z,90.95
2023-04-13T08:43:51.093Z,90.85
2023-04-13T08:44:54.088Z,90.33
2023-04-13T08:45:58.337Z,89.99
2023-04-13T08:47:02.689Z,90.12
2023-04-13T08:48:07.004Z,90.09
2023-04-13T08:49:11.197Z,90.20
2023-04-13T08:50:15.584Z,90.40
2023-04-13T08:51:33.935Z,90.46
2023-04-13T08:52:37.147Z,90.44
2023-04-13T08:53:41.414Z,90.30
2023-04-13T08:54:45.674Z,90.32
2023-04-13T08:55:49.900Z,90.39
2023-04-13T08:57:08.307Z,90.44
2023-04-13T08:58:11.475Z,90.42
2023-04-13T08:59:15.996Z,90.49
2023-04-13T09:00:19.926Z,90.38
2023-04-13T09:01:24.192Z,89.92
2023-04-13T09:02:28.749Z,89.77
2023-04-13T09:03:32.836Z,89.66
2023-04-13T09:04:37.070Z,89.64
2023-04-13T09:05:41.364Z,89.69
2023-04-13T09:06:45.643Z,89.74
2023-04-13T09:07:49.896Z,89.59
2023-04-13T09:08:54.232Z,89.53
2023-04-13T09:09:58.540Z,89.45
2023-04-13T09:11:02.818Z,89.11
2023-04-13T09:12:07.026Z,89.20
2023-04-13T09:13:11.289Z,89.39
2023-04-13T09:14:21.694Z,89.48
2023-04-13T09:15:24.665Z,89.61
2023-04-13T09:16:28.844Z,89.73
2023-04-13T09:17:33.111Z,89.57
2023-04-13T09:18:37.310Z,89.53
2023-04-13T09:19:41.690Z,89.24
2023-04-13T09:20:46.030Z,88.81
2023-04-13T09:21:50.486Z,88.78
2023-04-13T09:23:08.606Z,88.98
2023-04-13T09:24:12.177Z,89.04
2023-04-13T09:25:16.262Z,89.19
2023-04-13T09:26:20.444Z,89.12
2023-04-13T09:27:24.864Z,88.72
2023-04-13T09:28:29.119Z,88.61
2023-04-13T09:29:33.343Z,88.60
2023-04-13T09:30:37.698Z,88.68
2023-04-13T09:31:44.914Z,88.51
2023-04-13T09:32:46.286Z,88.24
2023-04-13T09:33:50.703Z,87.61
2023-04-13T09:34:54.952Z,87.38
2023-04-13T09:35:59.221Z,87.21
2023-04-13T09:37:03.550Z,87.04
2023-04-13T09:38:07.848Z,87.00
2023-04-13T09:39:12.110Z,86.96
2023-04-13T09:40:16.440Z,87.06
2023-04-13T09:41:20.703Z,87.00
2023-04-13T09:42:25.010Z,87.22
2023-04-13T09:43:29.343Z,86.71
2023-04-13T09:44:33.664Z,86.32
2023-04-13T09:45:37.948Z,85.56
2023-04-13T09:46:42.431Z,85.23
2023-04-13T09:47:46.591Z,84.65
2023-04-13T09:48:50.842Z,84.85
2023-04-13T09:49:55.147Z,85.20
2023-04-13T09:51:15.630Z,85.21
2023-04-13T09:52:21.916Z,85.57
2023-04-13T09:53:25.279Z,85.68
2023-04-13T09:54:29.460Z,85.80
2023-04-13T09:55:33.757Z,85.91
2023-04-13T09:56:38.194Z,85.93
2023-04-13T09:57:42.412Z,85.94
2023-04-13T09:58:46.765Z,86.00
2023-04-13T09:59:51.061Z,85.53
2023-04-13T10:00:55.429Z,85.38
2023-04-13T10:01:59.750Z,85.55
2023-04-13T10:03:04.152Z,85.65
2023-04-13T10:04:08.246Z,85.73
2023-04-13T10:05:12.671Z,85.92
2023-04-13T10:06:16.837Z,86.04
2023-04-13T10:07:21.188Z,86.24
2023-04-13T10:08:36.634Z,86.37
2023-04-13T10:09:29.778Z,86.13
2023-04-13T10:10:34.141Z,85.99
2023-04-13T10:11:38.475Z,85.79
2023-04-13T10:12:42.773Z,85.80
2023-04-13T10:13:47.133Z,85.77
2023-04-13T10:14:51.399Z,85.90
2023-04-13T10:15:57.301Z,85.93
2023-04-13T10:16:59.948Z,85.86
2023-04-13T10:18:04.379Z,85.83
2023-04-13T10:19:08.513Z,85.86
2023-04-13T10:20:18.837Z,85.94
2023-04-13T10:21:21.862Z,86.00
2023-04-13T10:22:25.992Z,85.82
2023-04-13T10:23:30.420Z,85.47
2023-04-13T10:24:34.684Z,85.46
2023-04-13T10:26:43.327Z,85.64
2023-04-13T10:27:47.725Z,85.64
2023-04-13T10:28:51.960Z,85.61
2023-04-13T10:29:56.264Z,85.69
2023-04-13T10:31:00.557Z,85.75
2023-04-13T10:32:05.066Z,85.82
2023-04-13T10:33:23.176Z,85.66
2023-04-13T10:34:26.073Z,85.69
2023-04-13T10:35:30.269Z,85.47
2023-04-13T10:36:34.497Z,85.36
2023-04-13T10:37:38.756Z,85.11
2023-04-13T10:38:43.077Z,85.00
2023-04-13T10:39:47.324Z,84.53
2023-04-13T10:40:51.576Z,84.41
2023-04-13T10:41:55.965Z,84.22
2023-04-13T10:43:00.296Z,84.08
2023-04-13T10:44:04.528Z,83.94
2023-04-13T10:45:08.780Z,83.89
2023-04-13T10:46:13.157Z,83.94
2023-04-13T10:47:25.049Z,83.73
2023-04-13T10:48:26.274Z,83.53
2023-04-13T10:49:30.531Z,83.66
2023-04-13T10:50:34.767Z,83.61
2023-04-13T10:51:39.055Z,83.64
2023-04-13T10:52:43.336Z,83.59
2023-04-13T10:53:47.690Z,83.72
2023-04-13T10:54:52.001Z,83.80
2023-04-13T10:55:56.231Z,83.91
2023-04-13T10:57:00.640Z,83.82
2023-04-13T10:58:05.076Z,84.00
2023-04-13T10:59:09.229Z,84.13
2023-04-13T11:00:13.558Z,84.15
2023-04-13T11:01:17.898Z,84.09
2023-04-13T11:02:25.307Z,84.25
2023-04-13T11:03:28.858Z,84.52
2023-04-13T11:04:32.821Z,84.66
2023-04-13T11:05:37.050Z,84.78
2023-04-13T11:06:41.389Z,84.75
2023-04-13T11:07:45.653Z,84.69
2023-04-13T11:08:49.958Z,84.52
2023-04-13T11:09:54.263Z,83.87
2023-04-13T11:10:58.629Z,83.02
2023-04-13T11:12:02.910Z,83.00
2023-04-13T11:13:07.146Z,83.13
2023-04-13T11:14:11.466Z,83.32
2023-04-13T11:15:15.823Z,83.30
2023-04-13T11:16:20.229Z,83.28
2023-04-13T11:17:24.677Z,83.41
2023-04-13T11:18:28.823Z,82.75
2023-04-13T11:19:33.054Z,81.74
2023-04-13T11:20:37.413Z,81.64
2023-04-13T11:21:41.630Z,81.91
2023-04-13T11:22:47.351Z,81.88
2023-04-13T11:24:04.300Z,82.14
2023-04-13T11:25:07.319Z,82.38
2023-04-13T11:26:11.612Z,82.18
2023-04-13T11:27:15.896Z,82.32
2023-04-13T11:28:20.268Z,82.34
2023-04-13T11:29:24.517Z,82.39
2023-04-13T11:30:28.851Z,82.56
2023-04-13T11:31:33.189Z,82.55
2023-04-13T11:32:43.646Z,82.46
2023-04-13T11:33:46.472Z,82.64
2023-04-13T11:34:50.757Z,82.78
2023-04-13T11:35:55.037Z,82.78
2023-04-13T11:36:59.427Z,82.99
2023-04-13T11:38:03.691Z,83.06
2023-04-13T11:39:10.132Z,82.96
2023-04-13T11:40:12.286Z,83.00
2023-04-13T11:41:17.503Z,82.98
2023-04-13T11:42:20.878Z,82.61
2023-04-13T11:43:25.281Z,82.46
2023-04-13T11:44:29.574Z,82.58
2023-04-13T11:45:33.835Z,82.58
2023-04-13T11:46:38.243Z,82.63
2023-04-13T11:47:48.441Z,82.66
2023-04-13T11:48:51.356Z,82.13
2023-04-13T11:49:55.530Z,82.21
2023-04-13T11:50:59.883Z,82.26
2023-04-13T11:52:04.181Z,82.24
2023-04-13T11:53:08.521Z,82.36
2023-04-13T11:54:12.883Z,82.37
2023-04-13T11:55:23.141Z,82.50
2023-04-13T11:56:21.472Z,82.60
2023-04-13T11:57:25.842Z,82.53
2023-04-13T11:58:36.078Z,82.55
2023-04-13T11:59:39.041Z,82.58
2023-04-13T12:00:43.285Z,82.67
2023-04-13T12:01:50.212Z,82.80
2023-04-13T12:04:07.804Z,82.83
2023-04-13T12:05:00.522Z,82.77
2023-04-13T12:06:07.950Z,82.78
2023-04-13T12:07:25.724Z,82.67
2023-04-13T12:08:28.732Z,82.46
2023-04-13T12:09:54.671Z,82.47
2023-04-13T12:10:42.970Z,82.30
2023-04-13T12:11:44.211Z,82.06
2023-04-13T12:12:53.175Z,81.34
2023-04-13T12:14:05.828Z,81.14
2023-04-13T12:15:06.795Z,81.06
2023-04-13T12:16:08.484Z,81.22
2023-04-13T12:17:12.376Z,81.45
2023-04-13T12:19:13.501Z,81.35
2023-04-13T12:20:15.989Z,81.35
2023-04-13T12:21:20.766Z,81.28
2023-04-13T12:22:24.478Z,81.37
2023-04-13T12:23:28.799Z,81.48
2023-04-13T12:24:33.103Z,81.72
2023-04-13T12:27:18.513Z,82.13
2023-04-13T12:28:12.902Z,82.16
2023-04-13T12:29:17.145Z,82.32
2023-04-13T12:30:21.612Z,82.41
2023-04-13T12:31:25.830Z,82.51
2023-04-13T12:32:30.228Z,82.64
2023-04-13T12:33:40.525Z,82.75
2023-04-13T12:34:43.542Z,82.76
2023-04-13T12:35:47.703Z,82.89
2023-04-13T12:36:51.992Z,83.05
2023-04-13T12:37:56.269Z,83.06
2023-04-13T12:39:00.764Z,83.14
2023-04-13T12:40:04.914Z,83.20
2023-04-13T12:41:09.184Z,83.27
2023-04-13T12:42:13.510Z,83.25
2023-04-13T12:43:17.824Z,83.26
2023-04-13T12:44:22.047Z,83.27
2023-04-13T12:45:40.420Z,83.22
2023-04-13T12:46:43.661Z,83.17
2023-04-13T12:47:47.851Z,83.05
2023-04-13T12:48:52.123Z,82.96
2023-04-13T12:49:56.367Z,83.00
2023-04-13T12:51:00.659Z,83.12
2023-04-13T12:52:04.896Z,83.25
2023-04-13T12:53:09.210Z,83.35
2023-04-13T12:54:13.518Z,83.44
2023-04-13T12:55:17.769Z,83.48
2023-04-13T12:56:22.092Z,83.51
2023-04-13T12:58:53.464Z,83.43
2023-04-13T12:59:57.696Z,83.50
2023-04-13T13:01:02.018Z,83.56
2023-04-13T13:02:06.369Z,83.58
2023-04-13T13:03:14.060Z,83.45
2023-04-13T13:04:28.926Z,83.44
2023-04-13T13:05:32.051Z,83.49
2023-04-13T13:06:36.216Z,83.55
2023-04-13T13:07:40.483Z,83.59
2023-04-13T13:08:44.781Z,83.63
2023-04-13T13:09:49.014Z,83.72
2023-04-13T13:10:53.411Z,83.78
2023-04-13T13:11:57.593Z,83.85
2023-04-13T13:13:01.951Z,83.87
2023-04-13T13:14:06.163Z,83.90
2023-04-13T13:15:10.442Z,83.94
2023-04-13T13:16:14.831Z,83.99
2023-04-13T13:17:19.022Z,84.05
2023-04-13T13:18:23.272Z,84.07
2023-04-13T13:19:27.520Z,84.18
2023-04-13T13:20:31.772Z,84.25
2023-04-13T13:21:36.070Z,84.31
2023-04-13T13:22:40.317Z,84.31
2023-04-13T13:23:44.673Z,84.31
2023-04-13T13:24:48.902Z,84.34
2023-04-13T13:26:23.251Z,84.34
2023-04-13T13:28:19.210Z,84.16
2023-04-13T13:29:23.533Z,84.00
2023-04-13T13:30:27.726Z,83.92
2023-04-13T13:31:32.234Z,83.94
2023-04-13T13:32:36.312Z,83.99
2023-04-13T13:33:40.566Z,84.09
2023-04-13T13:34:45.031Z,84.14
2023-04-13T13:35:49.204Z,84.14
2023-04-13T13:36:53.482Z,84.25
2023-04-13T13:37:57.754Z,84.42
2023-04-13T13:39:02.123Z,84.56
2023-04-13T13:40:06.327Z,84.64
2023-04-13T13:41:10.632Z,84.64
2023-04-13T13:42:14.921Z,84.57
2023-04-13T13:43:19.222Z,84.39
2023-04-13T13:44:37.860Z,84.18
2023-04-13T13:45:40.848Z,84.04
2023-04-13T13:46:45.028Z,84.02